x

La Perouse Bank (46206) Wave Buoy

5:00 - Mon 2nd May 2016 All times are PDT. -7 hours from GMT.

  • Sig Wave height 7.5ft
  • Peak Period 14s
  • Wind
    7mph, 9mph gusts
  • Sea Temp 55°f
  • Aire Temp 56°f
  • Sea Pressure 1013.1mb
  • La Perouse Bank
  • La Perouse Bank

More Historic Weather Station data

Upgrade to MSW Pro to gain access to the past 30 days of data for over 8000 Wavebouys and Weather Stations around the globe.

Join Pro

Comparision Forecast

View Surf forecast
   
lun 05/02 5:00 7.5ft 14s 7 9 mph 1013.1mb 55f 56f
4:00 8ft 14s 9 11 mph 1013.2mb 55f 58f
3:00 7ft 11s 9 13 mph 1013.1mb 55f 58f
2:00 8ft 11s 9 13 mph 1013.2mb 55f 57f
1:00 7ft 14s 11 16 mph 1013.3mb 54f 57f
12:00 7ft 14s 13 16 mph 1013.5mb 55f 58f
11:00 7.5ft 14s 13 16 mph 1013.6mb 55f 58f
10:00 7.5ft 11s 16 20 mph 1013.2mb 54f 58f
9:00 8ft 12s 13 20 mph 1013mb 54f 58f
8:00 9ft 12s 7 9 mph 1013mb 55f 56f
7:00 9ft 13s 7 9 mph 1013mb 54f 55f
6:00 8.5ft 11s 4 7 mph 1012.8mb 55f 55f
5:00 8.5ft 14s 7 11 mph 1012.8mb 55f 55f
4:00 7ft 12s 7 9 mph 1013.2mb 55f 56f
3:00 8ft 12s 7 9 mph 1013.4mb 55f 56f
2:00 7.5ft 15s 7
mph
1013.4mb 55f 56f
1:00 6ft 13s 4 7 mph 1013.5mb 55f 56f
12:00 6ft 13s 4 7 mph 1013.6mb 55f 56f
dom 05/01 11:00 6ft 12s 4 7 mph 1013.6mb 55f 56f
10:00 6ft 14s 2 4 mph 1013.9mb 56f 56f
9:00 6ft 13s 2 4 mph 1013.9mb 56f 56f
8:00 7ft 12s 4 7 mph 1014mb 56f 57f
7:00 6ft 12s 4 7 mph 1014.4mb 55f 57f
6:00 7ft 12s 4 7 mph 1015.1mb 55f 58f
5:00 7ft 12s 2 4 mph 1016.2mb 55f 58f
4:00 6.5ft 12s 4 7 mph 1017.1mb 56f 58f
3:00 7ft 12s 2 7 mph 1018mb 54f 57f
2:00 6.5ft 12s 4 7 mph 1018.6mb 54f 56f
1:00 6ft 13s 4 7 mph 1019.2mb 54f 56f
12:00 7ft 13s 4 9 mph 1020.2mb 54f 55f
11:00 6ft 13s 7 9 mph 1020.8mb 53f 54f
10:00 6ft 14s 7 9 mph 1021.4mb 53f 54f
9:00 6ft 13s 4 7 mph 1022.1mb 53f 53f
8:00 7ft 14s 4 7 mph 1022.6mb 53f 53f
7:00 6ft 9s 7 9 mph 1023.1mb 53f 53f
6:00 6ft 11s 9
mph
1023.6mb 53f 52f
5:00 7ft 13s 9 13 mph 1024.1mb 53f 52f
4:00 6.5ft 11s 11 13 mph 1024.5mb 53f 52f
3:00 6.5ft 11s 13 16 mph 1024.8mb 53f 52f
2:00 6ft 14s 11 13 mph 1025.3mb 53f 52f
1:00 6ft 12s 13 18 mph 1025.9mb 53f 52f
12:00 6ft 13s 13 18 mph 1026.5mb 53f 52f
sáb 04/30 11:00 5.5ft 13s 16 20 mph 1027mb 53f 52f
10:00  -   -  18
mph
1027.4mb 53f 52f
9:00 5.5ft 14s 18 20 mph 1027.7mb 53f 52f
8:00 5.5ft 10s 18 20 mph 1027.9mb 53f 52f
7:00 5.5ft 10s 16 18 mph 1028mb 53f 52f
6:00 6ft 10s 16 18 mph 1028.5mb 54f 53f
5:00 5.5ft 11s 18 20 mph 1028.8mb 54f 52f
3:00 5.5ft 10s 13 18 mph 1029.4mb 54f 52f
2:00 6ft 10s 11 13 mph 1029.3mb 53f 53f
1:00 6ft 10s 7 9 mph 1029.7mb 53f 53f
12:00 6ft 10s  -  2 mph 1029.6mb 53f 54f
11:00 6ft 10s 9 13 mph 1029.5mb 53f 52f
10:00 7ft 11s 2 9 mph 1028.5mb 55f 52f
9:00 7.5ft 11s 4 9 mph 1028.3mb 53f 52f
7:00 7ft 8s 9 11 mph 1027.3mb 52f 52f
6:00 7ft 10s 13 16 mph 1027mb 52f 51f
5:00 8ft 9s 13 18 mph 1026.3mb 52f 51f
4:00 8ft 10s 13 18 mph 1025.8mb 52f 52f
3:00 9ft 8s 18 20 mph 1025.4mb 53f 51f
2:00 9ft 8s 22 27 mph 1024.9mb 52f 52f
1:00 10ft 9s 22 27 mph 1024.2mb 52f 52f
12:00 10ft 8s 22 29 mph 1023.8mb 53f 52f
vie 04/29 11:00 11.5ft 8s 27 34 mph 1023.5mb 53f 52f
10:00 12ft 8s 27 31 mph 1023.2mb 53f 52f
9:00 12ft 8s 29 34 mph 1022.4mb 53f 52f
8:00 11ft 8s 29 36 mph 1022mb 53f 52f
7:00  -   -  27
mph
1021.6mb - 52f
6:00 10.5ft 8s 27 34 mph 1021.8mb 53f 52f
5:00 10.5ft 8s 27 34 mph 1021.4mb 53f 52f
4:00 9ft 8s 27 36 mph 1021.6mb 53f 52f
3:00 8.5ft 8s 27 36 mph 1021.3mb 53f 52f
2:00 9ft 12s 25 31 mph 1021.1mb 53f 52f
1:00 8ft 9s 25 29 mph 1021.2mb 53f 52f
12:00 7.5ft 10s 22 27 mph 1020.9mb 53f 51f
11:00 7.5ft 10s 20 25 mph 1021mb 53f 51f
10:00 7ft 12s 20 25 mph 1020.8mb 53f 51f
9:00 7ft 12s 16 20 mph 1020.6mb 53f 51f
8:00 7ft 11s 11 13 mph 1020.4mb 53f 50f
7:00 7ft 11s 9 11 mph 1020.1mb 53f 50f
6:00 6.5ft 10s 7 9 mph 1019.8mb 53f 50f
5:00 7ft 13s 7 9 mph 1019.7mb 53f 50f
4:00 6ft 12s 4 7 mph 1019.9mb 53f 50f
3:00 6ft 13s 4 7 mph 1019.8mb 53f 50f
2:00 6ft 12s 4 7 mph 1020mb 53f 50f